sensor_id;sensor_type;location;lat;lon;timestamp;P1;durP1;ratioP1;P2;durP2;ratioP2
44145;SDS011;29809;52.432;4.780;2023-02-20T00:00:23;4.00;;;3.05;;
44145;SDS011;29809;52.432;4.780;2023-02-20T00:02:48;4.32;;;2.72;;
44145;SDS011;29809;52.432;4.780;2023-02-20T00:05:14;3.70;;;3.38;;
44145;SDS011;29809;52.432;4.780;2023-02-20T00:07:39;2.55;;;2.35;;
44145;SDS011;29809;52.432;4.780;2023-02-20T00:10:04;3.17;;;2.50;;
44145;SDS011;29809;52.432;4.780;2023-02-20T00:12:30;3.28;;;2.97;;
44145;SDS011;29809;52.432;4.780;2023-02-20T00:14:56;4.30;;;3.20;;
44145;SDS011;29809;52.432;4.780;2023-02-20T00:17:22;3.75;;;3.28;;
44145;SDS011;29809;52.432;4.780;2023-02-20T00:19:47;5.55;;;3.20;;
44145;SDS011;29809;52.432;4.780;2023-02-20T00:22:12;3.72;;;2.47;;
44145;SDS011;29809;52.432;4.780;2023-02-20T00:24:37;3.67;;;2.90;;
44145;SDS011;29809;52.432;4.780;2023-02-20T00:27:03;4.32;;;3.05;;
44145;SDS011;29809;52.432;4.780;2023-02-20T00:29:28;3.97;;;2.85;;
44145;SDS011;29809;52.432;4.780;2023-02-20T00:31:54;4.20;;;3.20;;
44145;SDS011;29809;52.432;4.780;2023-02-20T00:34:20;3.45;;;3.15;;
44145;SDS011;29809;52.432;4.780;2023-02-20T00:36:46;4.93;;;3.35;;
44145;SDS011;29809;52.432;4.780;2023-02-20T00:39:11;3.70;;;2.88;;
44145;SDS011;29809;52.432;4.780;2023-02-20T00:41:36;4.93;;;3.17;;
44145;SDS011;29809;52.432;4.780;2023-02-20T00:44:02;4.78;;;3.20;;
44145;SDS011;29809;52.432;4.780;2023-02-20T00:46:27;5.45;;;3.25;;
44145;SDS011;29809;52.432;4.780;2023-02-20T00:48:52;5.00;;;2.97;;
44145;SDS011;29809;52.432;4.780;2023-02-20T00:51:17;4.32;;;2.85;;
44145;SDS011;29809;52.432;4.780;2023-02-20T00:53:43;4.90;;;3.20;;
44145;SDS011;29809;52.432;4.780;2023-02-20T00:56:08;6.90;;;3.30;;
44145;SDS011;29809;52.432;4.780;2023-02-20T00:58:33;7.18;;;3.10;;
44145;SDS011;29809;52.432;4.780;2023-02-20T01:00:59;4.72;;;3.00;;
44145;SDS011;29809;52.432;4.780;2023-02-20T01:03:24;5.68;;;3.13;;
44145;SDS011;29809;52.432;4.780;2023-02-20T01:05:49;6.47;;;2.92;;
44145;SDS011;29809;52.432;4.780;2023-02-20T01:08:14;10.68;;;4.13;;
44145;SDS011;29809;52.432;4.780;2023-02-20T01:10:39;5.47;;;3.33;;
44145;SDS011;29809;52.432;4.780;2023-02-20T01:13:05;8.00;;;3.70;;
44145;SDS011;29809;52.432;4.780;2023-02-20T01:15:30;5.75;;;3.25;;
44145;SDS011;29809;52.432;4.780;2023-02-20T01:17:55;5.53;;;2.97;;
44145;SDS011;29809;52.432;4.780;2023-02-20T01:20:20;7.03;;;2.92;;
44145;SDS011;29809;52.432;4.780;2023-02-20T01:22:46;10.73;;;3.28;;
44145;SDS011;29809;52.432;4.780;2023-02-20T01:25:11;6.60;;;3.33;;
44145;SDS011;29809;52.432;4.780;2023-02-20T01:27:36;7.65;;;2.53;;
44145;SDS011;29809;52.432;4.780;2023-02-20T01:30:02;8.57;;;3.15;;
44145;SDS011;29809;52.432;4.780;2023-02-20T01:32:27;7.75;;;3.33;;
44145;SDS011;29809;52.432;4.780;2023-02-20T01:34:52;7.82;;;3.03;;
44145;SDS011;29809;52.432;4.780;2023-02-20T01:37:17;10.57;;;3.13;;
44145;SDS011;29809;52.432;4.780;2023-02-20T01:39:45;8.57;;;3.55;;
44145;SDS011;29809;52.432;4.780;2023-02-20T01:42:11;10.38;;;3.40;;
44145;SDS011;29809;52.432;4.780;2023-02-20T01:44:38;10.32;;;3.55;;
44145;SDS011;29809;52.432;4.780;2023-02-20T01:47:08;7.95;;;2.85;;
44145;SDS011;29809;52.432;4.780;2023-02-20T01:49:37;6.90;;;3.08;;
44145;SDS011;29809;52.432;4.780;2023-02-20T01:52:13;8.07;;;3.08;;
44145;SDS011;29809;52.432;4.780;2023-02-20T01:54:39;6.32;;;3.00;;
44145;SDS011;29809;52.432;4.780;2023-02-20T01:57:06;9.30;;;2.85;;
44145;SDS011;29809;52.432;4.780;2023-02-20T01:59:34;9.02;;;3.40;;
44145;SDS011;29809;52.432;4.780;2023-02-20T02:02:01;11.23;;;3.40;;
44145;SDS011;29809;52.432;4.780;2023-02-20T02:04:26;11.10;;;3.55;;
44145;SDS011;29809;52.432;4.780;2023-02-20T02:06:52;10.27;;;2.85;;
44145;SDS011;29809;52.432;4.780;2023-02-20T02:09:22;9.27;;;2.60;;
44145;SDS011;29809;52.432;4.780;2023-02-20T02:11:48;8.15;;;3.00;;
44145;SDS011;29809;52.432;4.780;2023-02-20T02:14:14;8.63;;;2.92;;
44145;SDS011;29809;52.432;4.780;2023-02-20T02:27:28;10.55;;;3.17;;
44145;SDS011;29809;52.432;4.780;2023-02-20T02:35:09;10.82;;;3.03;;
44145;SDS011;29809;52.432;4.780;2023-02-20T02:43:02;9.13;;;3.38;;
44145;SDS011;29809;52.432;4.780;2023-02-20T02:50:27;7.55;;;2.97;;
44145;SDS011;29809;52.432;4.780;2023-02-20T02:52:54;9.32;;;2.65;;
44145;SDS011;29809;52.432;4.780;2023-02-20T02:55:21;10.20;;;2.67;;
44145;SDS011;29809;52.432;4.780;2023-02-20T02:57:46;7.65;;;2.60;;
44145;SDS011;29809;52.432;4.780;2023-02-20T03:02:45;14.40;;;3.90;;
44145;SDS011;29809;52.432;4.780;2023-02-20T03:05:12;11.93;;;3.53;;
44145;SDS011;29809;52.432;4.780;2023-02-20T03:07:39;13.05;;;3.28;;
44145;SDS011;29809;52.432;4.780;2023-02-20T03:10:07;11.95;;;3.90;;
44145;SDS011;29809;52.432;4.780;2023-02-20T03:12:35;14.27;;;4.13;;
44145;SDS011;29809;52.432;4.780;2023-02-20T03:15:04;8.52;;;3.22;;
44145;SDS011;29809;52.432;4.780;2023-02-20T03:17:56;9.45;;;3.40;;
44145;SDS011;29809;52.432;4.780;2023-02-20T03:20:24;10.00;;;2.80;;
44145;SDS011;29809;52.432;4.780;2023-02-20T03:22:51;10.27;;;3.95;;
44145;SDS011;29809;52.432;4.780;2023-02-20T03:25:22;10.75;;;3.35;;
44145;SDS011;29809;52.432;4.780;2023-02-20T03:27:57;11.98;;;3.75;;
44145;SDS011;29809;52.432;4.780;2023-02-20T03:30:28;10.55;;;3.63;;
44145;SDS011;29809;52.432;4.780;2023-02-20T03:32:59;8.55;;;3.65;;
44145;SDS011;29809;52.432;4.780;2023-02-20T03:35:44;9.70;;;2.90;;
44145;SDS011;29809;52.432;4.780;2023-02-20T03:38:28;11.30;;;3.72;;
44145;SDS011;29809;52.432;4.780;2023-02-20T03:41:14;9.85;;;3.42;;
44145;SDS011;29809;52.432;4.780;2023-02-20T03:43:58;9.55;;;4.00;;
44145;SDS011;29809;52.432;4.780;2023-02-20T03:46:24;13.90;;;3.38;;
44145;SDS011;29809;52.432;4.780;2023-02-20T03:51:15;11.45;;;3.80;;
44145;SDS011;29809;52.432;4.780;2023-02-20T03:53:59;9.57;;;3.80;;
44145;SDS011;29809;52.432;4.780;2023-02-20T03:56:25;11.20;;;3.85;;
44145;SDS011;29809;52.432;4.780;2023-02-20T03:58:53;9.05;;;3.72;;
44145;SDS011;29809;52.432;4.780;2023-02-20T04:01:19;9.27;;;3.30;;
44145;SDS011;29809;52.432;4.780;2023-02-20T04:03:46;11.93;;;3.83;;
44145;SDS011;29809;52.432;4.780;2023-02-20T04:06:13;10.80;;;3.60;;
44145;SDS011;29809;52.432;4.780;2023-02-20T04:08:41;10.63;;;3.75;;
44145;SDS011;29809;52.432;4.780;2023-02-20T04:11:10;8.52;;;3.75;;
44145;SDS011;29809;52.432;4.780;2023-02-20T04:13:36;8.77;;;3.30;;
44145;SDS011;29809;52.432;4.780;2023-02-20T04:16:02;8.23;;;3.47;;
44145;SDS011;29809;52.432;4.780;2023-02-20T04:18:28;7.53;;;3.50;;
44145;SDS011;29809;52.432;4.780;2023-02-20T04:20:55;11.07;;;3.60;;
44145;SDS011;29809;52.432;4.780;2023-02-20T04:23:22;12.15;;;4.13;;
44145;SDS011;29809;52.432;4.780;2023-02-20T04:28:13;9.20;;;3.58;;
44145;SDS011;29809;52.432;4.780;2023-02-20T04:30:39;10.18;;;3.80;;
44145;SDS011;29809;52.432;4.780;2023-02-20T04:33:04;9.95;;;4.20;;
44145;SDS011;29809;52.432;4.780;2023-02-20T04:35:30;10.70;;;3.75;;
44145;SDS011;29809;52.432;4.780;2023-02-20T04:37:55;13.73;;;3.55;;
44145;SDS011;29809;52.432;4.780;2023-02-20T04:40:21;9.82;;;3.47;;
44145;SDS011;29809;52.432;4.780;2023-02-20T04:42:46;13.43;;;4.13;;
44145;SDS011;29809;52.432;4.780;2023-02-20T04:45:12;10.23;;;3.65;;
44145;SDS011;29809;52.432;4.780;2023-02-20T04:47:37;7.97;;;3.65;;
44145;SDS011;29809;52.432;4.780;2023-02-20T04:50:02;12.35;;;3.50;;
44145;SDS011;29809;52.432;4.780;2023-02-20T04:52:28;10.73;;;3.83;;
44145;SDS011;29809;52.432;4.780;2023-02-20T04:54:53;12.60;;;4.45;;
44145;SDS011;29809;52.432;4.780;2023-02-20T04:57:18;8.82;;;3.78;;
44145;SDS011;29809;52.432;4.780;2023-02-20T04:59:43;9.23;;;4.30;;
44145;SDS011;29809;52.432;4.780;2023-02-20T05:02:09;10.52;;;4.30;;
44145;SDS011;29809;52.432;4.780;2023-02-20T05:04:34;11.03;;;3.83;;
44145;SDS011;29809;52.432;4.780;2023-02-20T05:07:00;8.07;;;3.77;;
44145;SDS011;29809;52.432;4.780;2023-02-20T05:09:25;13.35;;;4.57;;
44145;SDS011;29809;52.432;4.780;2023-02-20T05:11:51;7.30;;;3.50;;
44145;SDS011;29809;52.432;4.780;2023-02-20T05:14:16;10.75;;;4.05;;
44145;SDS011;29809;52.432;4.780;2023-02-20T05:16:42;11.53;;;4.23;;
44145;SDS011;29809;52.432;4.780;2023-02-20T05:19:09;10.90;;;4.20;;
44145;SDS011;29809;52.432;4.780;2023-02-20T05:21:35;10.90;;;3.77;;
44145;SDS011;29809;52.432;4.780;2023-02-20T05:24:19;13.25;;;3.63;;
44145;SDS011;29809;52.432;4.780;2023-02-20T05:26:44;7.47;;;3.80;;
44145;SDS011;29809;52.432;4.780;2023-02-20T05:29:09;7.85;;;4.20;;
44145;SDS011;29809;52.432;4.780;2023-02-20T05:31:37;10.73;;;4.53;;
44145;SDS011;29809;52.432;4.780;2023-02-20T05:34:02;12.52;;;4.60;;
44145;SDS011;29809;52.432;4.780;2023-02-20T05:36:27;8.43;;;3.88;;
44145;SDS011;29809;52.432;4.780;2023-02-20T05:38:52;11.35;;;4.30;;
44145;SDS011;29809;52.432;4.780;2023-02-20T05:41:18;11.95;;;3.80;;
44145;SDS011;29809;52.432;4.780;2023-02-20T05:43:43;10.35;;;4.10;;
44145;SDS011;29809;52.432;4.780;2023-02-20T05:46:09;12.70;;;4.07;;
44145;SDS011;29809;52.432;4.780;2023-02-20T05:48:34;13.83;;;3.97;;
44145;SDS011;29809;52.432;4.780;2023-02-20T05:50:59;18.45;;;3.60;;
44145;SDS011;29809;52.432;4.780;2023-02-20T05:53:28;13.30;;;4.17;;
44145;SDS011;29809;52.432;4.780;2023-02-20T05:55:54;9.83;;;3.47;;
44145;SDS011;29809;52.432;4.780;2023-02-20T05:58:19;10.95;;;3.35;;
44145;SDS011;29809;52.432;4.780;2023-02-20T06:00:44;9.70;;;3.42;;
44145;SDS011;29809;52.432;4.780;2023-02-20T06:03:10;9.52;;;4.10;;
44145;SDS011;29809;52.432;4.780;2023-02-20T06:05:35;14.20;;;3.58;;
44145;SDS011;29809;52.432;4.780;2023-02-20T06:08:00;10.97;;;3.30;;
44145;SDS011;29809;52.432;4.780;2023-02-20T06:10:26;146.45;;;33.45;;
44145;SDS011;29809;52.432;4.780;2023-02-20T06:12:51;114.10;;;35.00;;
44145;SDS011;29809;52.432;4.780;2023-02-20T06:15:16;111.47;;;31.42;;
44145;SDS011;29809;52.432;4.780;2023-02-20T06:17:41;104.90;;;27.65;;
44145;SDS011;29809;52.432;4.780;2023-02-20T06:20:07;92.78;;;25.48;;
44145;SDS011;29809;52.432;4.780;2023-02-20T06:22:32;66.45;;;21.10;;
44145;SDS011;29809;52.432;4.780;2023-02-20T06:24:58;54.40;;;20.33;;
44145;SDS011;29809;52.432;4.780;2023-02-20T06:27:23;52.38;;;19.00;;
44145;SDS011;29809;52.432;4.780;2023-02-20T06:29:48;52.17;;;15.63;;
44145;SDS011;29809;52.432;4.780;2023-02-20T06:32:14;48.75;;;15.70;;
44145;SDS011;29809;52.432;4.780;2023-02-20T06:34:39;34.78;;;13.43;;
44145;SDS011;29809;52.432;4.780;2023-02-20T06:37:05;33.70;;;12.63;;
44145;SDS011;29809;52.432;4.780;2023-02-20T06:39:30;33.38;;;10.98;;
44145;SDS011;29809;52.432;4.780;2023-02-20T06:41:56;25.40;;;9.55;;
44145;SDS011;29809;52.432;4.780;2023-02-20T06:44:21;27.88;;;10.07;;
44145;SDS011;29809;52.432;4.780;2023-02-20T06:46:47;27.33;;;9.70;;
44145;SDS011;29809;52.432;4.780;2023-02-20T06:49:12;26.02;;;8.77;;
44145;SDS011;29809;52.432;4.780;2023-02-20T06:51:38;27.85;;;8.75;;
44145;SDS011;29809;52.432;4.780;2023-02-20T06:54:04;24.30;;;6.88;;
44145;SDS011;29809;52.432;4.780;2023-02-20T06:56:31;17.08;;;7.15;;
44145;SDS011;29809;52.432;4.780;2023-02-20T06:58:56;15.63;;;7.03;;
44145;SDS011;29809;52.432;4.780;2023-02-20T07:01:23;18.07;;;6.60;;
44145;SDS011;29809;52.432;4.780;2023-02-20T07:03:50;16.02;;;6.25;;
44145;SDS011;29809;52.432;4.780;2023-02-20T07:06:17;16.55;;;6.38;;
44145;SDS011;29809;52.432;4.780;2023-02-20T07:08:42;14.40;;;5.85;;
44145;SDS011;29809;52.432;4.780;2023-02-20T07:11:08;12.75;;;5.05;;
44145;SDS011;29809;52.432;4.780;2023-02-20T07:13:33;15.23;;;4.80;;
44145;SDS011;29809;52.432;4.780;2023-02-20T07:15:59;16.58;;;5.63;;
44145;SDS011;29809;52.432;4.780;2023-02-20T07:18:24;8.23;;;4.37;;
44145;SDS011;29809;52.432;4.780;2023-02-20T07:20:51;13.38;;;4.88;;
44145;SDS011;29809;52.432;4.780;2023-02-20T07:23:16;12.55;;;4.43;;
44145;SDS011;29809;52.432;4.780;2023-02-20T07:25:42;17.58;;;4.15;;
44145;SDS011;29809;52.432;4.780;2023-02-20T07:28:07;8.68;;;3.78;;
44145;SDS011;29809;52.432;4.780;2023-02-20T07:30:33;13.05;;;4.72;;
44145;SDS011;29809;52.432;4.780;2023-02-20T07:32:58;13.07;;;4.32;;
44145;SDS011;29809;52.432;4.780;2023-02-20T07:35:23;13.10;;;4.65;;
44145;SDS011;29809;52.432;4.780;2023-02-20T07:37:49;16.80;;;4.63;;
44145;SDS011;29809;52.432;4.780;2023-02-20T07:40:14;12.30;;;3.90;;
44145;SDS011;29809;52.432;4.780;2023-02-20T07:42:39;13.13;;;4.45;;
44145;SDS011;29809;52.432;4.780;2023-02-20T07:45:04;12.90;;;4.45;;
44145;SDS011;29809;52.432;4.780;2023-02-20T07:47:30;11.40;;;3.65;;
44145;SDS011;29809;52.432;4.780;2023-02-20T07:49:55;8.75;;;3.72;;
44145;SDS011;29809;52.432;4.780;2023-02-20T07:52:20;12.33;;;3.90;;
44145;SDS011;29809;52.432;4.780;2023-02-20T07:54:45;11.65;;;4.13;;
44145;SDS011;29809;52.432;4.780;2023-02-20T07:57:11;12.10;;;4.28;;
44145;SDS011;29809;52.432;4.780;2023-02-20T07:59:36;12.60;;;4.20;;
44145;SDS011;29809;52.432;4.780;2023-02-20T08:02:01;12.10;;;4.03;;
44145;SDS011;29809;52.432;4.780;2023-02-20T08:04:26;10.23;;;4.00;;
44145;SDS011;29809;52.432;4.780;2023-02-20T08:06:52;11.15;;;4.00;;
44145;SDS011;29809;52.432;4.780;2023-02-20T08:09:17;9.67;;;4.40;;
44145;SDS011;29809;52.432;4.780;2023-02-20T08:11:42;9.13;;;3.78;;
44145;SDS011;29809;52.432;4.780;2023-02-20T08:14:08;14.43;;;4.80;;
44145;SDS011;29809;52.432;4.780;2023-02-20T08:16:33;11.13;;;3.43;;
44145;SDS011;29809;52.432;4.780;2023-02-20T08:18:58;11.20;;;4.03;;
44145;SDS011;29809;52.432;4.780;2023-02-20T08:21:24;7.75;;;4.32;;
44145;SDS011;29809;52.432;4.780;2023-02-20T08:23:49;10.52;;;4.07;;
44145;SDS011;29809;52.432;4.780;2023-02-20T08:26:16;10.00;;;3.90;;
44145;SDS011;29809;52.432;4.780;2023-02-20T08:28:41;7.87;;;3.40;;
44145;SDS011;29809;52.432;4.780;2023-02-20T08:31:06;9.83;;;3.70;;
44145;SDS011;29809;52.432;4.780;2023-02-20T08:33:32;9.13;;;3.55;;
44145;SDS011;29809;52.432;4.780;2023-02-20T08:35:57;11.70;;;4.15;;
44145;SDS011;29809;52.432;4.780;2023-02-20T08:38:24;7.88;;;4.07;;
44145;SDS011;29809;52.432;4.780;2023-02-20T08:40:50;7.22;;;3.22;;
44145;SDS011;29809;52.432;4.780;2023-02-20T08:43:15;8.65;;;4.38;;
44145;SDS011;29809;52.432;4.780;2023-02-20T08:45:41;11.25;;;3.80;;
44145;SDS011;29809;52.432;4.780;2023-02-20T08:48:06;9.68;;;3.95;;
44145;SDS011;29809;52.432;4.780;2023-02-20T08:50:31;9.93;;;4.40;;
44145;SDS011;29809;52.432;4.780;2023-02-20T08:52:56;8.52;;;3.97;;
44145;SDS011;29809;52.432;4.780;2023-02-20T08:55:22;8.02;;;3.72;;
44145;SDS011;29809;52.432;4.780;2023-02-20T08:57:47;9.63;;;3.13;;
44145;SDS011;29809;52.432;4.780;2023-02-20T09:00:13;11.20;;;3.88;;
44145;SDS011;29809;52.432;4.780;2023-02-20T09:02:38;9.52;;;4.15;;
44145;SDS011;29809;52.432;4.780;2023-02-20T09:05:04;9.93;;;4.45;;
44145;SDS011;29809;52.432;4.780;2023-02-20T09:07:29;9.02;;;3.75;;
44145;SDS011;29809;52.432;4.780;2023-02-20T09:09:54;8.98;;;3.80;;
44145;SDS011;29809;52.432;4.780;2023-02-20T09:12:19;6.57;;;4.22;;
44145;SDS011;29809;52.432;4.780;2023-02-20T09:14:45;11.18;;;3.75;;
44145;SDS011;29809;52.432;4.780;2023-02-20T09:17:10;8.02;;;3.20;;
44145;SDS011;29809;52.432;4.780;2023-02-20T09:19:36;8.23;;;3.38;;
44145;SDS011;29809;52.432;4.780;2023-02-20T09:22:01;10.20;;;3.65;;
44145;SDS011;29809;52.432;4.780;2023-02-20T09:24:26;9.50;;;3.67;;
44145;SDS011;29809;52.432;4.780;2023-02-20T09:26:58;7.10;;;3.10;;
44145;SDS011;29809;52.432;4.780;2023-02-20T09:29:24;11.70;;;4.68;;
44145;SDS011;29809;52.432;4.780;2023-02-20T09:31:49;11.73;;;4.35;;
44145;SDS011;29809;52.432;4.780;2023-02-20T09:34:14;7.32;;;3.60;;
44145;SDS011;29809;52.432;4.780;2023-02-20T09:36:39;9.43;;;3.47;;
44145;SDS011;29809;52.432;4.780;2023-02-20T09:39:05;6.47;;;3.30;;
44145;SDS011;29809;52.432;4.780;2023-02-20T09:46:36;9.07;;;4.20;;
44145;SDS011;29809;52.432;4.780;2023-02-20T09:49:04;5.82;;;3.38;;
44145;SDS011;29809;52.432;4.780;2023-02-20T09:51:32;9.15;;;3.20;;
44145;SDS011;29809;52.432;4.780;2023-02-20T09:54:20;9.00;;;4.32;;
44145;SDS011;29809;52.432;4.780;2023-02-20T09:56:50;8.07;;;2.97;;
44145;SDS011;29809;52.432;4.780;2023-02-20T10:02:07;8.20;;;3.53;;
44145;SDS011;29809;52.432;4.780;2023-02-20T10:04:36;8.00;;;3.30;;
44145;SDS011;29809;52.432;4.780;2023-02-20T10:07:22;7.05;;;3.13;;
44145;SDS011;29809;52.432;4.780;2023-02-20T10:09:48;5.38;;;3.08;;
44145;SDS011;29809;52.432;4.780;2023-02-20T10:12:23;6.88;;;3.20;;
44145;SDS011;29809;52.432;4.780;2023-02-20T10:20:02;7.18;;;3.13;;
44145;SDS011;29809;52.432;4.780;2023-02-20T10:22:31;9.57;;;3.38;;
44145;SDS011;29809;52.432;4.780;2023-02-20T10:25:00;11.55;;;3.25;;
44145;SDS011;29809;52.432;4.780;2023-02-20T10:27:37;7.43;;;2.80;;
44145;SDS011;29809;52.432;4.780;2023-02-20T10:30:08;7.88;;;3.15;;
44145;SDS011;29809;52.432;4.780;2023-02-20T10:35:02;9.33;;;3.00;;
44145;SDS011;29809;52.432;4.780;2023-02-20T10:37:31;11.90;;;3.30;;
44145;SDS011;29809;52.432;4.780;2023-02-20T10:40:20;9.07;;;2.72;;
44145;SDS011;29809;52.432;4.780;2023-02-20T10:43:05;6.28;;;2.70;;
44145;SDS011;29809;52.432;4.780;2023-02-20T10:45:30;8.55;;;4.15;;
44145;SDS011;29809;52.432;4.780;2023-02-20T10:48:07;7.97;;;2.80;;
44145;SDS011;29809;52.432;4.780;2023-02-20T10:56:00;7.57;;;2.90;;
44145;SDS011;29809;52.432;4.780;2023-02-20T10:58:33;4.85;;;2.70;;
44145;SDS011;29809;52.432;4.780;2023-02-20T11:01:01;6.45;;;2.78;;
44145;SDS011;29809;52.432;4.780;2023-02-20T11:03:37;6.40;;;2.63;;
44145;SDS011;29809;52.432;4.780;2023-02-20T11:06:04;9.13;;;3.00;;
44145;SDS011;29809;52.432;4.780;2023-02-20T11:08:31;8.57;;;2.60;;
44145;SDS011;29809;52.432;4.780;2023-02-20T11:10:58;9.40;;;3.30;;
44145;SDS011;29809;52.432;4.780;2023-02-20T11:13:24;10.05;;;2.95;;
44145;SDS011;29809;52.432;4.780;2023-02-20T11:15:51;7.53;;;3.10;;
44145;SDS011;29809;52.432;4.780;2023-02-20T11:18:34;7.70;;;2.22;;
44145;SDS011;29809;52.432;4.780;2023-02-20T11:20:59;8.93;;;3.33;;
44145;SDS011;29809;52.432;4.780;2023-02-20T11:23:38;6.70;;;3.00;;
44145;SDS011;29809;52.432;4.780;2023-02-20T11:28:41;8.30;;;2.78;;
44145;SDS011;29809;52.432;4.780;2023-02-20T11:31:07;6.45;;;2.72;;
44145;SDS011;29809;52.432;4.780;2023-02-20T11:33:33;6.22;;;2.65;;
44145;SDS011;29809;52.432;4.780;2023-02-20T11:38:37;5.45;;;2.90;;
44145;SDS011;29809;52.432;4.780;2023-02-20T11:43:36;8.07;;;2.70;;
44145;SDS011;29809;52.432;4.780;2023-02-20T11:46:14;6.80;;;2.85;;
44145;SDS011;29809;52.432;4.780;2023-02-20T11:54:08;10.48;;;3.05;;
44145;SDS011;29809;52.432;4.780;2023-02-20T11:56:33;6.57;;;2.75;;
44145;SDS011;29809;52.432;4.780;2023-02-20T12:02:10;8.18;;;2.97;;
44145;SDS011;29809;52.432;4.780;2023-02-20T12:04:36;8.00;;;2.67;;
44145;SDS011;29809;52.432;4.780;2023-02-20T12:07:09;7.65;;;2.63;;
44145;SDS011;29809;52.432;4.780;2023-02-20T12:09:41;5.57;;;2.08;;
44145;SDS011;29809;52.432;4.780;2023-02-20T12:12:07;8.05;;;2.47;;
44145;SDS011;29809;52.432;4.780;2023-02-20T12:14:36;7.07;;;2.55;;
44145;SDS011;29809;52.432;4.780;2023-02-20T12:17:05;5.22;;;2.42;;
44145;SDS011;29809;52.432;4.780;2023-02-20T12:26:55;8.00;;;3.00;;
44145;SDS011;29809;52.432;4.780;2023-02-20T12:34:24;10.32;;;2.80;;
44145;SDS011;29809;52.432;4.780;2023-02-20T12:37:00;6.13;;;2.35;;
44145;SDS011;29809;52.432;4.780;2023-02-20T12:39:32;10.57;;;2.80;;
44145;SDS011;29809;52.432;4.780;2023-02-20T12:52:21;4.45;;;2.13;;
44145;SDS011;29809;52.432;4.780;2023-02-20T12:54:54;8.23;;;2.50;;
44145;SDS011;29809;52.432;4.780;2023-02-20T13:02:28;7.22;;;2.28;;
44145;SDS011;29809;52.432;4.780;2023-02-20T13:04:59;4.85;;;2.03;;
44145;SDS011;29809;52.432;4.780;2023-02-20T13:07:34;5.60;;;2.30;;
44145;SDS011;29809;52.432;4.780;2023-02-20T13:10:09;4.57;;;2.00;;
44145;SDS011;29809;52.432;4.780;2023-02-20T13:12:36;5.15;;;1.70;;
44145;SDS011;29809;52.432;4.780;2023-02-20T13:15:05;6.82;;;2.30;;
44145;SDS011;29809;52.432;4.780;2023-02-20T13:17:37;4.90;;;2.15;;
44145;SDS011;29809;52.432;4.780;2023-02-20T13:20:18;6.53;;;2.15;;
44145;SDS011;29809;52.432;4.780;2023-02-20T13:23:23;5.55;;;2.35;;
44145;SDS011;29809;52.432;4.780;2023-02-20T13:28:01;10.38;;;2.85;;
44145;SDS011;29809;52.432;4.780;2023-02-20T13:30:31;7.80;;;2.40;;
44145;SDS011;29809;52.432;4.780;2023-02-20T13:38:30;5.93;;;2.38;;
44145;SDS011;29809;52.432;4.780;2023-02-20T13:45:46;8.80;;;3.08;;
44145;SDS011;29809;52.432;4.780;2023-02-20T13:48:46;8.43;;;2.38;;
44145;SDS011;29809;52.432;4.780;2023-02-20T13:53:45;6.97;;;2.17;;
44145;SDS011;29809;52.432;4.780;2023-02-20T13:58:40;5.30;;;2.40;;
44145;SDS011;29809;52.432;4.780;2023-02-20T14:01:05;4.47;;;2.30;;
44145;SDS011;29809;52.432;4.780;2023-02-20T14:03:32;5.25;;;1.98;;
44145;SDS011;29809;52.432;4.780;2023-02-20T14:08:26;4.85;;;2.13;;
44145;SDS011;29809;52.432;4.780;2023-02-20T14:10:51;6.53;;;2.05;;
44145;SDS011;29809;52.432;4.780;2023-02-20T14:13:17;6.30;;;2.10;;
44145;SDS011;29809;52.432;4.780;2023-02-20T14:18:25;4.03;;;1.98;;
44145;SDS011;29809;52.432;4.780;2023-02-20T14:20:56;5.97;;;1.90;;
44145;SDS011;29809;52.432;4.780;2023-02-20T14:23:28;7.43;;;2.08;;
44145;SDS011;29809;52.432;4.780;2023-02-20T14:25:57;5.88;;;2.25;;
44145;SDS011;29809;52.432;4.780;2023-02-20T14:28:23;5.55;;;2.08;;
44145;SDS011;29809;52.432;4.780;2023-02-20T14:33:32;5.80;;;2.40;;
44145;SDS011;29809;52.432;4.780;2023-02-20T14:36:11;4.93;;;1.77;;
44145;SDS011;29809;52.432;4.780;2023-02-20T14:41:11;6.32;;;2.45;;
44145;SDS011;29809;52.432;4.780;2023-02-20T14:43:36;6.45;;;2.33;;
44145;SDS011;29809;52.432;4.780;2023-02-20T14:46:02;7.15;;;2.20;;
44145;SDS011;29809;52.432;4.780;2023-02-20T14:48:29;5.43;;;1.85;;
44145;SDS011;29809;52.432;4.780;2023-02-20T14:51:02;4.00;;;1.80;;
44145;SDS011;29809;52.432;4.780;2023-02-20T14:53:27;5.43;;;1.90;;
44145;SDS011;29809;52.432;4.780;2023-02-20T14:55:52;4.80;;;2.20;;
44145;SDS011;29809;52.432;4.780;2023-02-20T14:58:21;4.70;;;2.13;;
44145;SDS011;29809;52.432;4.780;2023-02-20T15:00:49;4.88;;;2.00;;
44145;SDS011;29809;52.432;4.780;2023-02-20T15:03:24;3.10;;;2.25;;
44145;SDS011;29809;52.432;4.780;2023-02-20T15:05:49;6.22;;;2.40;;
44145;SDS011;29809;52.432;4.780;2023-02-20T15:08:19;6.85;;;1.65;;
44145;SDS011;29809;52.432;4.780;2023-02-20T15:10:46;4.20;;;2.15;;
44145;SDS011;29809;52.432;4.780;2023-02-20T15:13:17;6.93;;;2.08;;
44145;SDS011;29809;52.432;4.780;2023-02-20T15:15:44;3.00;;;1.92;;
44145;SDS011;29809;52.432;4.780;2023-02-20T15:18:31;6.28;;;2.28;;
44145;SDS011;29809;52.432;4.780;2023-02-20T15:20:55;3.13;;;1.70;;
44145;SDS011;29809;52.432;4.780;2023-02-20T15:23:27;5.93;;;2.10;;
44145;SDS011;29809;52.432;4.780;2023-02-20T15:25:52;4.40;;;2.17;;
44145;SDS011;29809;52.432;4.780;2023-02-20T15:33:51;7.60;;;2.45;;
44145;SDS011;29809;52.432;4.780;2023-02-20T15:36:18;3.90;;;2.00;;
44145;SDS011;29809;52.432;4.780;2023-02-20T15:38:44;8.93;;;2.40;;
44145;SDS011;29809;52.432;4.780;2023-02-20T15:41:09;7.53;;;2.13;;
44145;SDS011;29809;52.432;4.780;2023-02-20T15:43:35;5.95;;;2.63;;
44145;SDS011;29809;52.432;4.780;2023-02-20T15:46:00;6.50;;;2.10;;
44145;SDS011;29809;52.432;4.780;2023-02-20T15:48:25;6.30;;;2.25;;
44145;SDS011;29809;52.432;4.780;2023-02-20T15:50:51;5.75;;;2.40;;
44145;SDS011;29809;52.432;4.780;2023-02-20T15:53:19;8.50;;;2.70;;
44145;SDS011;29809;52.432;4.780;2023-02-20T15:55:44;4.40;;;2.72;;
44145;SDS011;29809;52.432;4.780;2023-02-20T16:01:06;5.70;;;2.60;;
44145;SDS011;29809;52.432;4.780;2023-02-20T16:03:32;8.00;;;3.00;;
44145;SDS011;29809;52.432;4.780;2023-02-20T16:05:58;6.03;;;2.70;;
44145;SDS011;29809;52.432;4.780;2023-02-20T16:08:23;6.40;;;3.17;;
44145;SDS011;29809;52.432;4.780;2023-02-20T16:10:49;6.72;;;3.40;;
44145;SDS011;29809;52.432;4.780;2023-02-20T16:13:34;8.07;;;3.08;;
44145;SDS011;29809;52.432;4.780;2023-02-20T16:16:01;7.05;;;3.40;;
44145;SDS011;29809;52.432;4.780;2023-02-20T16:18:30;7.28;;;2.97;;
44145;SDS011;29809;52.432;4.780;2023-02-20T16:20:56;6.22;;;2.75;;
44145;SDS011;29809;52.432;4.780;2023-02-20T16:23:22;5.82;;;3.17;;
44145;SDS011;29809;52.432;4.780;2023-02-20T16:25:47;7.15;;;2.85;;
44145;SDS011;29809;52.432;4.780;2023-02-20T16:28:13;6.80;;;2.75;;
44145;SDS011;29809;52.432;4.780;2023-02-20T16:30:39;8.57;;;3.30;;
44145;SDS011;29809;52.432;4.780;2023-02-20T16:33:12;6.68;;;3.15;;
44145;SDS011;29809;52.432;4.780;2023-02-20T16:35:39;7.68;;;3.08;;
44145;SDS011;29809;52.432;4.780;2023-02-20T16:38:04;8.48;;;3.00;;
44145;SDS011;29809;52.432;4.780;2023-02-20T16:40:30;5.78;;;2.53;;
44145;SDS011;29809;52.432;4.780;2023-02-20T16:42:55;8.25;;;3.08;;
44145;SDS011;29809;52.432;4.780;2023-02-20T16:45:20;8.20;;;2.90;;
44145;SDS011;29809;52.432;4.780;2023-02-20T16:47:49;8.15;;;2.88;;
44145;SDS011;29809;52.432;4.780;2023-02-20T16:50:15;6.75;;;2.78;;
44145;SDS011;29809;52.432;4.780;2023-02-20T16:52:43;10.00;;;3.05;;
44145;SDS011;29809;52.432;4.780;2023-02-20T16:55:19;8.35;;;2.95;;
44145;SDS011;29809;52.432;4.780;2023-02-20T16:57:45;7.53;;;3.28;;
44145;SDS011;29809;52.432;4.780;2023-02-20T17:00:18;8.30;;;3.00;;